sensor_id;sensor_type;location;lat;lon;timestamp;P1;durP1;ratioP1;P2;durP2;ratioP2
9496;SDS011;4786;51.270;4.456;2022-07-17T00:01:11;2.90;;;2.13;;
9496;SDS011;4786;51.270;4.456;2022-07-17T00:03:37;2.53;;;2.17;;
9496;SDS011;4786;51.270;4.456;2022-07-17T00:06:03;3.40;;;1.80;;
9496;SDS011;4786;51.270;4.456;2022-07-17T00:08:29;2.07;;;1.87;;
9496;SDS011;4786;51.270;4.456;2022-07-17T00:10:56;2.80;;;2.23;;
9496;SDS011;4786;51.270;4.456;2022-07-17T00:13:23;2.50;;;1.90;;
9496;SDS011;4786;51.270;4.456;2022-07-17T00:15:49;4.03;;;2.17;;
9496;SDS011;4786;51.270;4.456;2022-07-17T00:18:15;2.80;;;1.83;;
9496;SDS011;4786;51.270;4.456;2022-07-17T00:20:41;3.23;;;2.20;;
9496;SDS011;4786;51.270;4.456;2022-07-17T00:23:08;3.60;;;2.10;;
9496;SDS011;4786;51.270;4.456;2022-07-17T00:25:34;2.53;;;2.23;;
9496;SDS011;4786;51.270;4.456;2022-07-17T00:28:00;4.47;;;2.40;;
9496;SDS011;4786;51.270;4.456;2022-07-17T00:30:26;3.03;;;2.37;;
9496;SDS011;4786;51.270;4.456;2022-07-17T00:32:52;5.03;;;2.53;;
9496;SDS011;4786;51.270;4.456;2022-07-17T00:35:17;5.20;;;2.67;;
9496;SDS011;4786;51.270;4.456;2022-07-17T00:37:44;3.53;;;2.40;;
9496;SDS011;4786;51.270;4.456;2022-07-17T00:40:13;2.63;;;2.43;;
9496;SDS011;4786;51.270;4.456;2022-07-17T00:42:43;4.37;;;2.53;;
9496;SDS011;4786;51.270;4.456;2022-07-17T00:45:10;3.33;;;2.30;;
9496;SDS011;4786;51.270;4.456;2022-07-17T00:47:56;3.40;;;2.40;;
9496;SDS011;4786;51.270;4.456;2022-07-17T00:50:23;5.20;;;2.20;;
9496;SDS011;4786;51.270;4.456;2022-07-17T00:52:51;3.30;;;2.27;;
9496;SDS011;4786;51.270;4.456;2022-07-17T00:55:18;3.90;;;2.70;;
9496;SDS011;4786;51.270;4.456;2022-07-17T00:57:45;3.20;;;2.20;;
9496;SDS011;4786;51.270;4.456;2022-07-17T01:00:12;4.93;;;2.50;;
9496;SDS011;4786;51.270;4.456;2022-07-17T01:02:39;3.57;;;2.03;;
9496;SDS011;4786;51.270;4.456;2022-07-17T01:05:05;3.70;;;2.30;;
9496;SDS011;4786;51.270;4.456;2022-07-17T01:07:32;2.83;;;2.20;;
9496;SDS011;4786;51.270;4.456;2022-07-17T01:09:58;4.43;;;2.30;;
9496;SDS011;4786;51.270;4.456;2022-07-17T01:12:25;3.70;;;2.27;;
9496;SDS011;4786;51.270;4.456;2022-07-17T01:14:52;2.20;;;2.00;;
9496;SDS011;4786;51.270;4.456;2022-07-17T01:17:18;6.03;;;2.60;;
9496;SDS011;4786;51.270;4.456;2022-07-17T01:19:44;4.30;;;2.60;;
9496;SDS011;4786;51.270;4.456;2022-07-17T01:22:10;3.57;;;2.30;;
9496;SDS011;4786;51.270;4.456;2022-07-17T01:24:39;4.47;;;2.50;;
9496;SDS011;4786;51.270;4.456;2022-07-17T01:27:06;3.30;;;2.57;;
9496;SDS011;4786;51.270;4.456;2022-07-17T01:29:32;2.60;;;2.30;;
9496;SDS011;4786;51.270;4.456;2022-07-17T01:32:00;2.77;;;2.23;;
9496;SDS011;4786;51.270;4.456;2022-07-17T01:34:26;4.57;;;2.00;;
9496;SDS011;4786;51.270;4.456;2022-07-17T01:36:52;3.20;;;2.20;;
9496;SDS011;4786;51.270;4.456;2022-07-17T01:39:18;3.23;;;2.30;;
9496;SDS011;4786;51.270;4.456;2022-07-17T01:42:04;3.90;;;2.17;;
9496;SDS011;4786;51.270;4.456;2022-07-17T01:44:30;5.20;;;2.60;;
9496;SDS011;4786;51.270;4.456;2022-07-17T01:46:56;4.13;;;2.30;;
9496;SDS011;4786;51.270;4.456;2022-07-17T01:49:21;3.47;;;2.30;;
9496;SDS011;4786;51.270;4.456;2022-07-17T01:51:47;2.43;;;2.00;;
9496;SDS011;4786;51.270;4.456;2022-07-17T01:54:14;3.33;;;2.23;;
9496;SDS011;4786;51.270;4.456;2022-07-17T01:56:40;4.70;;;2.40;;
9496;SDS011;4786;51.270;4.456;2022-07-17T01:59:06;5.17;;;2.50;;
9496;SDS011;4786;51.270;4.456;2022-07-17T02:01:32;4.73;;;2.23;;
9496;SDS011;4786;51.270;4.456;2022-07-17T02:03:58;2.63;;;2.10;;
9496;SDS011;4786;51.270;4.456;2022-07-17T02:06:23;2.93;;;2.10;;
9496;SDS011;4786;51.270;4.456;2022-07-17T02:08:49;3.33;;;2.13;;
9496;SDS011;4786;51.270;4.456;2022-07-17T02:11:16;5.73;;;2.37;;
9496;SDS011;4786;51.270;4.456;2022-07-17T02:13:43;4.03;;;2.40;;
9496;SDS011;4786;51.270;4.456;2022-07-17T02:16:08;4.17;;;2.50;;
9496;SDS011;4786;51.270;4.456;2022-07-17T02:18:35;2.87;;;2.23;;
9496;SDS011;4786;51.270;4.456;2022-07-17T02:21:00;3.37;;;2.30;;
9496;SDS011;4786;51.270;4.456;2022-07-17T02:23:26;4.23;;;2.27;;
9496;SDS011;4786;51.270;4.456;2022-07-17T02:25:53;4.47;;;2.47;;
9496;SDS011;4786;51.270;4.456;2022-07-17T02:28:19;4.13;;;2.47;;
9496;SDS011;4786;51.270;4.456;2022-07-17T02:30:45;3.53;;;2.37;;
9496;SDS011;4786;51.270;4.456;2022-07-17T02:33:12;3.60;;;1.93;;
9496;SDS011;4786;51.270;4.456;2022-07-17T02:35:37;5.93;;;2.40;;
9496;SDS011;4786;51.270;4.456;2022-07-17T02:38:03;3.50;;;1.93;;
9496;SDS011;4786;51.270;4.456;2022-07-17T02:40:29;2.43;;;2.13;;
9496;SDS011;4786;51.270;4.456;2022-07-17T02:42:55;5.03;;;2.20;;
9496;SDS011;4786;51.270;4.456;2022-07-17T02:45:21;3.20;;;2.10;;
9496;SDS011;4786;51.270;4.456;2022-07-17T02:47:50;4.03;;;2.20;;
9496;SDS011;4786;51.270;4.456;2022-07-17T02:50:16;3.57;;;2.40;;
9496;SDS011;4786;51.270;4.456;2022-07-17T02:52:42;3.47;;;2.40;;
9496;SDS011;4786;51.270;4.456;2022-07-17T02:55:09;3.47;;;2.20;;
9496;SDS011;4786;51.270;4.456;2022-07-17T02:57:36;4.87;;;2.20;;
9496;SDS011;4786;51.270;4.456;2022-07-17T03:00:07;3.23;;;2.30;;
9496;SDS011;4786;51.270;4.456;2022-07-17T03:02:34;4.53;;;2.60;;
9496;SDS011;4786;51.270;4.456;2022-07-17T03:05:00;3.77;;;2.60;;
9496;SDS011;4786;51.270;4.456;2022-07-17T03:07:26;5.20;;;2.60;;
9496;SDS011;4786;51.270;4.456;2022-07-17T03:09:52;4.40;;;2.47;;
9496;SDS011;4786;51.270;4.456;2022-07-17T03:12:18;3.40;;;2.30;;
9496;SDS011;4786;51.270;4.456;2022-07-17T03:14:44;4.70;;;2.53;;
9496;SDS011;4786;51.270;4.456;2022-07-17T03:17:10;2.80;;;2.20;;
9496;SDS011;4786;51.270;4.456;2022-07-17T03:19:36;3.10;;;2.33;;
9496;SDS011;4786;51.270;4.456;2022-07-17T03:22:02;2.40;;;2.20;;
9496;SDS011;4786;51.270;4.456;2022-07-17T03:24:28;3.13;;;2.27;;
9496;SDS011;4786;51.270;4.456;2022-07-17T03:26:54;4.60;;;2.53;;
9496;SDS011;4786;51.270;4.456;2022-07-17T03:29:20;3.70;;;2.60;;
9496;SDS011;4786;51.270;4.456;2022-07-17T03:31:46;6.07;;;2.50;;
9496;SDS011;4786;51.270;4.456;2022-07-17T03:34:12;4.47;;;2.30;;
9496;SDS011;4786;51.270;4.456;2022-07-17T03:36:39;3.53;;;2.20;;
9496;SDS011;4786;51.270;4.456;2022-07-17T03:39:05;3.37;;;2.43;;
9496;SDS011;4786;51.270;4.456;2022-07-17T03:41:31;5.20;;;2.50;;
9496;SDS011;4786;51.270;4.456;2022-07-17T03:43:58;6.53;;;2.87;;
9496;SDS011;4786;51.270;4.456;2022-07-17T03:46:24;6.13;;;2.50;;
9496;SDS011;4786;51.270;4.456;2022-07-17T03:48:51;4.50;;;2.80;;
9496;SDS011;4786;51.270;4.456;2022-07-17T03:51:17;3.50;;;2.93;;
9496;SDS011;4786;51.270;4.456;2022-07-17T03:53:43;3.63;;;2.57;;
9496;SDS011;4786;51.270;4.456;2022-07-17T03:56:09;6.27;;;2.73;;
9496;SDS011;4786;51.270;4.456;2022-07-17T03:58:35;4.27;;;2.50;;
9496;SDS011;4786;51.270;4.456;2022-07-17T04:01:01;4.77;;;2.50;;
9496;SDS011;4786;51.270;4.456;2022-07-17T04:03:28;4.10;;;2.30;;
9496;SDS011;4786;51.270;4.456;2022-07-17T04:05:54;3.63;;;2.40;;
9496;SDS011;4786;51.270;4.456;2022-07-17T04:08:20;3.47;;;2.60;;
9496;SDS011;4786;51.270;4.456;2022-07-17T04:10:46;3.43;;;2.60;;
9496;SDS011;4786;51.270;4.456;2022-07-17T04:13:11;6.07;;;2.80;;
9496;SDS011;4786;51.270;4.456;2022-07-17T04:15:38;4.20;;;2.70;;
9496;SDS011;4786;51.270;4.456;2022-07-17T04:18:25;3.63;;;2.43;;
9496;SDS011;4786;51.270;4.456;2022-07-17T04:20:54;5.00;;;2.50;;
9496;SDS011;4786;51.270;4.456;2022-07-17T04:23:22;5.40;;;2.20;;
9496;SDS011;4786;51.270;4.456;2022-07-17T04:25:48;3.10;;;2.20;;
9496;SDS011;4786;51.270;4.456;2022-07-17T04:28:15;4.67;;;2.60;;
9496;SDS011;4786;51.270;4.456;2022-07-17T04:30:41;4.37;;;2.37;;
9496;SDS011;4786;51.270;4.456;2022-07-17T04:33:08;4.90;;;2.63;;
9496;SDS011;4786;51.270;4.456;2022-07-17T04:35:34;4.17;;;2.53;;
9496;SDS011;4786;51.270;4.456;2022-07-17T04:38:00;2.97;;;2.33;;
9496;SDS011;4786;51.270;4.456;2022-07-17T04:40:27;2.93;;;2.40;;
9496;SDS011;4786;51.270;4.456;2022-07-17T04:42:53;4.17;;;2.50;;
9496;SDS011;4786;51.270;4.456;2022-07-17T04:45:19;4.47;;;2.77;;
9496;SDS011;4786;51.270;4.456;2022-07-17T04:47:45;4.33;;;2.63;;
9496;SDS011;4786;51.270;4.456;2022-07-17T04:50:11;4.60;;;2.70;;
9496;SDS011;4786;51.270;4.456;2022-07-17T04:52:37;3.93;;;2.40;;
9496;SDS011;4786;51.270;4.456;2022-07-17T04:55:03;3.37;;;2.40;;
9496;SDS011;4786;51.270;4.456;2022-07-17T04:57:29;3.37;;;2.60;;
9496;SDS011;4786;51.270;4.456;2022-07-17T04:59:55;10.07;;;3.10;;
9496;SDS011;4786;51.270;4.456;2022-07-17T05:02:21;3.97;;;2.60;;
9496;SDS011;4786;51.270;4.456;2022-07-17T05:04:48;3.87;;;2.90;;
9496;SDS011;4786;51.270;4.456;2022-07-17T05:07:14;3.83;;;2.73;;
9496;SDS011;4786;51.270;4.456;2022-07-17T05:09:40;4.53;;;3.03;;
9496;SDS011;4786;51.270;4.456;2022-07-17T05:12:06;6.07;;;3.17;;
9496;SDS011;4786;51.270;4.456;2022-07-17T05:14:33;5.43;;;3.00;;
9496;SDS011;4786;51.270;4.456;2022-07-17T05:16:59;3.80;;;3.17;;
9496;SDS011;4786;51.270;4.456;2022-07-17T05:19:25;7.97;;;3.53;;
9496;SDS011;4786;51.270;4.456;2022-07-17T05:21:51;4.17;;;3.20;;
9496;SDS011;4786;51.270;4.456;2022-07-17T05:24:17;4.37;;;2.70;;
9496;SDS011;4786;51.270;4.456;2022-07-17T05:26:43;5.43;;;2.80;;
9496;SDS011;4786;51.270;4.456;2022-07-17T05:29:09;3.73;;;2.67;;
9496;SDS011;4786;51.270;4.456;2022-07-17T05:31:35;5.10;;;3.00;;
9496;SDS011;4786;51.270;4.456;2022-07-17T05:34:01;2.97;;;2.13;;
9496;SDS011;4786;51.270;4.456;2022-07-17T05:36:27;4.95;;;2.30;;
9496;SDS011;4786;51.270;4.456;2022-07-17T05:38:53;3.33;;;2.50;;
9496;SDS011;4786;51.270;4.456;2022-07-17T05:41:20;5.40;;;2.45;;
9496;SDS011;4786;51.270;4.456;2022-07-17T05:43:45;2.92;;;2.15;;
9496;SDS011;4786;51.270;4.456;2022-07-17T05:46:11;5.70;;;2.70;;
9496;SDS011;4786;51.270;4.456;2022-07-17T05:48:37;3.33;;;2.70;;
9496;SDS011;4786;51.270;4.456;2022-07-17T05:51:03;3.00;;;2.33;;
9496;SDS011;4786;51.270;4.456;2022-07-17T05:53:28;3.92;;;2.03;;
9496;SDS011;4786;51.270;4.456;2022-07-17T05:55:54;3.55;;;2.05;;
9496;SDS011;4786;51.270;4.456;2022-07-17T05:58:20;4.00;;;2.30;;
9496;SDS011;4786;51.270;4.456;2022-07-17T06:00:46;5.38;;;2.58;;
9496;SDS011;4786;51.270;4.456;2022-07-17T06:03:13;4.88;;;2.20;;
9496;SDS011;4786;51.270;4.456;2022-07-17T06:05:40;6.38;;;2.38;;
9496;SDS011;4786;51.270;4.456;2022-07-17T06:08:06;3.83;;;2.28;;
9496;SDS011;4786;51.270;4.456;2022-07-17T06:10:32;4.43;;;2.22;;
9496;SDS011;4786;51.270;4.456;2022-07-17T06:12:58;3.97;;;2.03;;
9496;SDS011;4786;51.270;4.456;2022-07-17T06:15:24;4.32;;;2.20;;
9496;SDS011;4786;51.270;4.456;2022-07-17T06:17:51;3.08;;;2.05;;
9496;SDS011;4786;51.270;4.456;2022-07-17T06:20:17;3.42;;;1.95;;
9496;SDS011;4786;51.270;4.456;2022-07-17T06:22:44;3.38;;;2.05;;
9496;SDS011;4786;51.270;4.456;2022-07-17T06:25:11;3.28;;;1.73;;
9496;SDS011;4786;51.270;4.456;2022-07-17T06:27:42;4.75;;;1.80;;
9496;SDS011;4786;51.270;4.456;2022-07-17T06:30:09;4.22;;;2.22;;
9496;SDS011;4786;51.270;4.456;2022-07-17T06:32:36;3.72;;;2.10;;
9496;SDS011;4786;51.270;4.456;2022-07-17T06:35:02;4.93;;;1.90;;
9496;SDS011;4786;51.270;4.456;2022-07-17T06:37:28;4.63;;;2.00;;
9496;SDS011;4786;51.270;4.456;2022-07-17T06:39:55;5.22;;;2.20;;
9496;SDS011;4786;51.270;4.456;2022-07-17T06:42:21;3.65;;;2.13;;
9496;SDS011;4786;51.270;4.456;2022-07-17T06:44:46;4.88;;;2.10;;
9496;SDS011;4786;51.270;4.456;2022-07-17T06:47:12;4.10;;;1.98;;
9496;SDS011;4786;51.270;4.456;2022-07-17T06:49:38;2.28;;;1.50;;
9496;SDS011;4786;51.270;4.456;2022-07-17T06:52:05;4.70;;;1.98;;
9496;SDS011;4786;51.270;4.456;2022-07-17T06:54:31;6.00;;;2.13;;
9496;SDS011;4786;51.270;4.456;2022-07-17T06:56:57;4.15;;;1.70;;
9496;SDS011;4786;51.270;4.456;2022-07-17T06:59:22;2.45;;;1.52;;
9496;SDS011;4786;51.270;4.456;2022-07-17T07:01:48;3.45;;;1.98;;
9496;SDS011;4786;51.270;4.456;2022-07-17T07:04:15;3.20;;;1.60;;
9496;SDS011;4786;51.270;4.456;2022-07-17T07:06:40;4.13;;;1.60;;
9496;SDS011;4786;51.270;4.456;2022-07-17T07:09:07;3.08;;;1.70;;
9496;SDS011;4786;51.270;4.456;2022-07-17T07:11:33;4.40;;;1.80;;
9496;SDS011;4786;51.270;4.456;2022-07-17T07:13:59;5.05;;;2.03;;
9496;SDS011;4786;51.270;4.456;2022-07-17T07:16:25;3.53;;;1.80;;
9496;SDS011;4786;51.270;4.456;2022-07-17T07:18:51;3.22;;;1.70;;
9496;SDS011;4786;51.270;4.456;2022-07-17T07:21:17;4.50;;;2.03;;
9496;SDS011;4786;51.270;4.456;2022-07-17T07:23:42;3.65;;;1.55;;
9496;SDS011;4786;51.270;4.456;2022-07-17T07:26:08;3.35;;;1.80;;
9496;SDS011;4786;51.270;4.456;2022-07-17T07:28:34;4.25;;;1.75;;
9496;SDS011;4786;51.270;4.456;2022-07-17T07:31:00;4.55;;;1.70;;
9496;SDS011;4786;51.270;4.456;2022-07-17T07:33:26;3.30;;;1.50;;
9496;SDS011;4786;51.270;4.456;2022-07-17T07:35:52;3.25;;;1.55;;
9496;SDS011;4786;51.270;4.456;2022-07-17T07:38:17;3.03;;;1.75;;
9496;SDS011;4786;51.270;4.456;2022-07-17T07:40:43;4.78;;;1.75;;
9496;SDS011;4786;51.270;4.456;2022-07-17T07:43:09;2.53;;;1.52;;
9496;SDS011;4786;51.270;4.456;2022-07-17T07:45:35;3.58;;;1.40;;
9496;SDS011;4786;51.270;4.456;2022-07-17T07:48:00;4.57;;;1.80;;
9496;SDS011;4786;51.270;4.456;2022-07-17T07:50:26;6.43;;;2.10;;
9496;SDS011;4786;51.270;4.456;2022-07-17T07:52:53;3.00;;;1.60;;
9496;SDS011;4786;51.270;4.456;2022-07-17T07:55:19;3.30;;;1.70;;
9496;SDS011;4786;51.270;4.456;2022-07-17T07:57:46;6.45;;;1.80;;
9496;SDS011;4786;51.270;4.456;2022-07-17T08:00:26;3.25;;;1.60;;
9496;SDS011;4786;51.270;4.456;2022-07-17T08:02:52;2.88;;;1.65;;
9496;SDS011;4786;51.270;4.456;2022-07-17T08:05:17;1.90;;;1.50;;
9496;SDS011;4786;51.270;4.456;2022-07-17T08:07:43;2.20;;;1.52;;
9496;SDS011;4786;51.270;4.456;2022-07-17T08:10:09;3.63;;;1.50;;
9496;SDS011;4786;51.270;4.456;2022-07-17T08:12:35;3.28;;;1.50;;
9496;SDS011;4786;51.270;4.456;2022-07-17T08:15:00;2.53;;;1.60;;
9496;SDS011;4786;51.270;4.456;2022-07-17T08:17:27;2.78;;;1.70;;
9496;SDS011;4786;51.270;4.456;2022-07-17T08:19:53;5.03;;;1.98;;
9496;SDS011;4786;51.270;4.456;2022-07-17T08:22:19;2.60;;;1.50;;
9496;SDS011;4786;51.270;4.456;2022-07-17T08:24:45;4.50;;;1.80;;
9496;SDS011;4786;51.270;4.456;2022-07-17T08:27:14;4.00;;;1.80;;
9496;SDS011;4786;51.270;4.456;2022-07-17T08:29:40;3.90;;;1.92;;
9496;SDS011;4786;51.270;4.456;2022-07-17T08:32:05;2.42;;;1.60;;
9496;SDS011;4786;51.270;4.456;2022-07-17T08:34:31;2.60;;;1.60;;
9496;SDS011;4786;51.270;4.456;2022-07-17T08:36:57;3.38;;;1.67;;
9496;SDS011;4786;51.270;4.456;2022-07-17T08:39:23;2.97;;;1.77;;
9496;SDS011;4786;51.270;4.456;2022-07-17T08:41:49;2.85;;;1.75;;
9496;SDS011;4786;51.270;4.456;2022-07-17T08:44:15;6.35;;;1.80;;
9496;SDS011;4786;51.270;4.456;2022-07-17T08:46:41;2.47;;;1.38;;
9496;SDS011;4786;51.270;4.456;2022-07-17T08:49:07;3.28;;;1.60;;
9496;SDS011;4786;51.270;4.456;2022-07-17T08:51:33;4.03;;;1.63;;
9496;SDS011;4786;51.270;4.456;2022-07-17T08:53:59;2.70;;;1.65;;
9496;SDS011;4786;51.270;4.456;2022-07-17T08:56:26;2.88;;;1.60;;
9496;SDS011;4786;51.270;4.456;2022-07-17T08:58:52;2.35;;;1.50;;
9496;SDS011;4786;51.270;4.456;2022-07-17T09:01:18;2.25;;;1.80;;
9496;SDS011;4786;51.270;4.456;2022-07-17T09:04:01;4.65;;;1.80;;
9496;SDS011;4786;51.270;4.456;2022-07-17T09:06:33;1.98;;;1.55;;
9496;SDS011;4786;51.270;4.456;2022-07-17T09:09:09;2.05;;;1.58;;
9496;SDS011;4786;51.270;4.456;2022-07-17T09:11:49;2.15;;;1.63;;
9496;SDS011;4786;51.270;4.456;2022-07-17T09:14:17;4.60;;;1.80;;
9496;SDS011;4786;51.270;4.456;2022-07-17T09:16:51;4.80;;;1.45;;
9496;SDS011;4786;51.270;4.456;2022-07-17T09:19:29;4.40;;;1.80;;
9496;SDS011;4786;51.270;4.456;2022-07-17T09:24:56;3.47;;;2.08;;
9496;SDS011;4786;51.270;4.456;2022-07-17T09:29:59;3.33;;;1.80;;
9496;SDS011;4786;51.270;4.456;2022-07-17T09:32:29;2.75;;;1.67;;
9496;SDS011;4786;51.270;4.456;2022-07-17T09:34:58;4.35;;;1.90;;
9496;SDS011;4786;51.270;4.456;2022-07-17T09:37:25;4.28;;;1.95;;
9496;SDS011;4786;51.270;4.456;2022-07-17T09:39:52;2.92;;;2.20;;
9496;SDS011;4786;51.270;4.456;2022-07-17T09:42:29;2.58;;;1.83;;
9496;SDS011;4786;51.270;4.456;2022-07-17T09:44:57;3.50;;;1.80;;
9496;SDS011;4786;51.270;4.456;2022-07-17T09:47:24;1.88;;;1.75;;
9496;SDS011;4786;51.270;4.456;2022-07-17T09:49:54;2.88;;;1.88;;
9496;SDS011;4786;51.270;4.456;2022-07-17T09:52:22;4.22;;;1.88;;
9496;SDS011;4786;51.270;4.456;2022-07-17T09:54:52;3.47;;;1.60;;
9496;SDS011;4786;51.270;4.456;2022-07-17T09:57:19;7.03;;;2.08;;
9496;SDS011;4786;51.270;4.456;2022-07-17T09:59:49;2.70;;;2.15;;
9496;SDS011;4786;51.270;4.456;2022-07-17T10:02:16;4.28;;;2.35;;
9496;SDS011;4786;51.270;4.456;2022-07-17T10:04:44;5.05;;;2.55;;
9496;SDS011;4786;51.270;4.456;2022-07-17T10:07:12;3.03;;;2.38;;
9496;SDS011;4786;51.270;4.456;2022-07-17T10:09:38;2.97;;;2.05;;
9496;SDS011;4786;51.270;4.456;2022-07-17T10:12:05;3.15;;;1.92;;
9496;SDS011;4786;51.270;4.456;2022-07-17T10:14:32;4.50;;;2.13;;
9496;SDS011;4786;51.270;4.456;2022-07-17T10:17:05;3.78;;;2.50;;
9496;SDS011;4786;51.270;4.456;2022-07-17T10:19:43;4.68;;;2.33;;
9496;SDS011;4786;51.270;4.456;2022-07-17T10:22:12;3.65;;;2.40;;
9496;SDS011;4786;51.270;4.456;2022-07-17T10:24:44;4.38;;;2.45;;
9496;SDS011;4786;51.270;4.456;2022-07-17T10:27:18;2.90;;;2.20;;
9496;SDS011;4786;51.270;4.456;2022-07-17T10:32:35;4.60;;;2.40;;
9496;SDS011;4786;51.270;4.456;2022-07-17T10:35:04;2.33;;;2.13;;
9496;SDS011;4786;51.270;4.456;2022-07-17T10:50:25;3.10;;;2.10;;
9496;SDS011;4786;51.270;4.456;2022-07-17T10:55:29;3.65;;;2.42;;
9496;SDS011;4786;51.270;4.456;2022-07-17T10:57:57;3.03;;;2.50;;
9496;SDS011;4786;51.270;4.456;2022-07-17T11:00:23;3.30;;;2.55;;
9496;SDS011;4786;51.270;4.456;2022-07-17T11:02:50;3.63;;;2.58;;
9496;SDS011;4786;51.270;4.456;2022-07-17T11:05:17;4.25;;;2.63;;
9496;SDS011;4786;51.270;4.456;2022-07-17T11:07:53;3.53;;;2.30;;
9496;SDS011;4786;51.270;4.456;2022-07-17T11:10:25;3.45;;;2.85;;
9496;SDS011;4786;51.270;4.456;2022-07-17T11:12:53;3.13;;;2.67;;
9496;SDS011;4786;51.270;4.456;2022-07-17T11:15:20;4.07;;;2.90;;
9496;SDS011;4786;51.270;4.456;2022-07-17T11:17:47;4.25;;;2.90;;
9496;SDS011;4786;51.270;4.456;2022-07-17T11:20:14;3.72;;;2.53;;
9496;SDS011;4786;51.270;4.456;2022-07-17T11:22:41;5.78;;;2.80;;
9496;SDS011;4786;51.270;4.456;2022-07-17T11:25:08;3.35;;;2.72;;
9496;SDS011;4786;51.270;4.456;2022-07-17T11:27:36;3.10;;;2.70;;
9496;SDS011;4786;51.270;4.456;2022-07-17T11:30:03;3.15;;;2.65;;
9496;SDS011;4786;51.270;4.456;2022-07-17T11:32:34;2.90;;;2.45;;
9496;SDS011;4786;51.270;4.456;2022-07-17T11:35:13;3.58;;;2.55;;
9496;SDS011;4786;51.270;4.456;2022-07-17T11:37:40;3.58;;;2.92;;
9496;SDS011;4786;51.270;4.456;2022-07-17T11:40:06;2.90;;;2.67;;
9496;SDS011;4786;51.270;4.456;2022-07-17T11:42:32;3.22;;;2.75;;
9496;SDS011;4786;51.270;4.456;2022-07-17T11:44:58;3.03;;;2.72;;
9496;SDS011;4786;51.270;4.456;2022-07-17T11:47:25;4.03;;;2.67;;
9496;SDS011;4786;51.270;4.456;2022-07-17T11:50:02;3.05;;;2.60;;
9496;SDS011;4786;51.270;4.456;2022-07-17T11:52:38;2.63;;;2.42;;
9496;SDS011;4786;51.270;4.456;2022-07-17T11:55:08;3.83;;;2.80;;
9496;SDS011;4786;51.270;4.456;2022-07-17T11:57:41;3.25;;;2.85;;
9496;SDS011;4786;51.270;4.456;2022-07-17T12:00:11;3.88;;;2.65;;
9496;SDS011;4786;51.270;4.456;2022-07-17T12:02:39;3.85;;;2.63;;
9496;SDS011;4786;51.270;4.456;2022-07-17T12:05:04;4.10;;;2.88;;
9496;SDS011;4786;51.270;4.456;2022-07-17T12:10:17;3.10;;;2.80;;
9496;SDS011;4786;51.270;4.456;2022-07-17T12:12:51;3.22;;;2.92;;
9496;SDS011;4786;51.270;4.456;2022-07-17T12:15:17;4.03;;;2.88;;
9496;SDS011;4786;51.270;4.456;2022-07-17T12:17:43;3.40;;;3.10;;
9496;SDS011;4786;51.270;4.456;2022-07-17T12:20:09;3.50;;;3.15;;
9496;SDS011;4786;51.270;4.456;2022-07-17T12:22:42;3.50;;;3.20;;
9496;SDS011;4786;51.270;4.456;2022-07-17T12:28:06;3.65;;;3.13;;
9496;SDS011;4786;51.270;4.456;2022-07-17T12:30:32;3.33;;;3.03;;
9496;SDS011;4786;51.270;4.456;2022-07-17T12:32:58;3.40;;;3.10;;
9496;SDS011;4786;51.270;4.456;2022-07-17T12:35:24;3.20;;;2.90;;
9496;SDS011;4786;51.270;4.456;2022-07-17T12:37:50;5.07;;;2.83;;
9496;SDS011;4786;51.270;4.456;2022-07-17T12:40:17;6.85;;;3.10;;
9496;SDS011;4786;51.270;4.456;2022-07-17T12:42:42;5.57;;;3.22;;
9496;SDS011;4786;51.270;4.456;2022-07-17T12:45:08;4.32;;;2.72;;
9496;SDS011;4786;51.270;4.456;2022-07-17T12:47:35;4.82;;;2.85;;
9496;SDS011;4786;51.270;4.456;2022-07-17T12:50:00;2.75;;;2.50;;
9496;SDS011;4786;51.270;4.456;2022-07-17T12:52:26;3.38;;;2.90;;
9496;SDS011;4786;51.270;4.456;2022-07-17T12:54:52;3.15;;;2.80;;
9496;SDS011;4786;51.270;4.456;2022-07-17T12:57:18;3.30;;;3.00;;
9496;SDS011;4786;51.270;4.456;2022-07-17T12:59:44;5.72;;;3.20;;
9496;SDS011;4786;51.270;4.456;2022-07-17T13:02:10;2.97;;;2.60;;
9496;SDS011;4786;51.270;4.456;2022-07-17T13:04:36;3.83;;;3.00;;
9496;SDS011;4786;51.270;4.456;2022-07-17T13:07:03;3.47;;;3.10;;
9496;SDS011;4786;51.270;4.456;2022-07-17T13:09:29;3.33;;;3.03;;
9496;SDS011;4786;51.270;4.456;2022-07-17T13:11:55;3.10;;;2.80;;
9496;SDS011;4786;51.270;4.456;2022-07-17T13:14:21;4.13;;;3.20;;
9496;SDS011;4786;51.270;4.456;2022-07-17T13:16:47;3.28;;;2.97;;
9496;SDS011;4786;51.270;4.456;2022-07-17T13:19:13;3.85;;;3.33;;
9496;SDS011;4786;51.270;4.456;2022-07-17T13:21:39;4.20;;;3.13;;
9496;SDS011;4786;51.270;4.456;2022-07-17T13:24:05;7.43;;;3.00;;
9496;SDS011;4786;51.270;4.456;2022-07-17T13:26:30;3.97;;;3.10;;
9496;SDS011;4786;51.270;4.456;2022-07-17T13:28:56;3.70;;;2.97;;
9496;SDS011;4786;51.270;4.456;2022-07-17T13:31:22;3.67;;;2.92;;
9496;SDS011;4786;51.270;4.456;2022-07-17T13:33:48;5.35;;;3.17;;
9496;SDS011;4786;51.270;4.456;2022-07-17T13:36:14;3.40;;;3.10;;
9496;SDS011;4786;51.270;4.456;2022-07-17T13:38:40;4.20;;;2.90;;
9496;SDS011;4786;51.270;4.456;2022-07-17T13:41:06;4.47;;;3.58;;
9496;SDS011;4786;51.270;4.456;2022-07-17T13:43:32;3.40;;;3.10;;
9496;SDS011;4786;51.270;4.456;2022-07-17T13:45:58;3.20;;;2.83;;
9496;SDS011;4786;51.270;4.456;2022-07-17T13:48:23;8.85;;;3.45;;
9496;SDS011;4786;51.270;4.456;2022-07-17T13:50:49;4.35;;;2.97;;
9496;SDS011;4786;51.270;4.456;2022-07-17T13:53:15;3.90;;;3.00;;
9496;SDS011;4786;51.270;4.456;2022-07-17T13:55:41;4.55;;;3.00;;
9496;SDS011;4786;51.270;4.456;2022-07-17T13:58:06;3.20;;;2.90;;
9496;SDS011;4786;51.270;4.456;2022-07-17T14:00:33;3.35;;;2.92;;
9496;SDS011;4786;51.270;4.456;2022-07-17T14:02:59;4.22;;;2.97;;
9496;SDS011;4786;51.270;4.456;2022-07-17T14:05:24;4.53;;;2.90;;
9496;SDS011;4786;51.270;4.456;2022-07-17T14:07:50;4.05;;;3.28;;
9496;SDS011;4786;51.270;4.456;2022-07-17T14:10:17;4.55;;;2.90;;
9496;SDS011;4786;51.270;4.456;2022-07-17T14:12:42;4.05;;;3.20;;
9496;SDS011;4786;51.270;4.456;2022-07-17T14:15:09;3.72;;;3.22;;
9496;SDS011;4786;51.270;4.456;2022-07-17T14:17:35;4.43;;;3.20;;
9496;SDS011;4786;51.270;4.456;2022-07-17T14:20:02;4.07;;;3.05;;
9496;SDS011;4786;51.270;4.456;2022-07-17T14:22:28;3.50;;;3.20;;
9496;SDS011;4786;51.270;4.456;2022-07-17T14:24:54;3.30;;;3.00;;
9496;SDS011;4786;51.270;4.456;2022-07-17T14:27:21;3.50;;;2.97;;
9496;SDS011;4786;51.270;4.456;2022-07-17T14:29:47;3.25;;;2.95;;
9496;SDS011;4786;51.270;4.456;2022-07-17T14:32:13;3.40;;;3.10;;
9496;SDS011;4786;51.270;4.456;2022-07-17T14:34:40;3.58;;;3.28;;
9496;SDS011;4786;51.270;4.456;2022-07-17T14:37:06;4.13;;;3.53;;
9496;SDS011;4786;51.270;4.456;2022-07-17T14:39:33;3.08;;;2.80;;
9496;SDS011;4786;51.270;4.456;2022-07-17T14:41:59;6.10;;;3.28;;
9496;SDS011;4786;51.270;4.456;2022-07-17T14:44:25;6.32;;;3.72;;
9496;SDS011;4786;51.270;4.456;2022-07-17T14:46:52;4.43;;;3.35;;
9496;SDS011;4786;51.270;4.456;2022-07-17T14:49:27;4.07;;;3.65;;
9496;SDS011;4786;51.270;4.456;2022-07-17T14:51:56;3.42;;;3.00;;
9496;SDS011;4786;51.270;4.456;2022-07-17T14:54:23;3.28;;;2.85;;
9496;SDS011;4786;51.270;4.456;2022-07-17T14:56:49;3.90;;;3.10;;
9496;SDS011;4786;51.270;4.456;2022-07-17T14:59:15;5.45;;;3.20;;
9496;SDS011;4786;51.270;4.456;2022-07-17T15:01:40;3.80;;;3.40;;
9496;SDS011;4786;51.270;4.456;2022-07-17T15:04:07;3.75;;;2.95;;
9496;SDS011;4786;51.270;4.456;2022-07-17T15:06:32;3.03;;;2.83;;
9496;SDS011;4786;51.270;4.456;2022-07-17T15:08:58;3.30;;;3.00;;
9496;SDS011;4786;51.270;4.456;2022-07-17T15:11:24;3.83;;;3.10;;
9496;SDS011;4786;51.270;4.456;2022-07-17T15:13:50;5.00;;;3.65;;
9496;SDS011;4786;51.270;4.456;2022-07-17T15:16:16;6.93;;;3.05;;
9496;SDS011;4786;51.270;4.456;2022-07-17T15:18:42;3.60;;;3.30;;
9496;SDS011;4786;51.270;4.456;2022-07-17T15:21:08;3.47;;;3.03;;
9496;SDS011;4786;51.270;4.456;2022-07-17T15:23:34;4.07;;;3.40;;
9496;SDS011;4786;51.270;4.456;2022-07-17T15:26:02;3.85;;;3.55;;
9496;SDS011;4786;51.270;4.456;2022-07-17T15:28:28;3.63;;;3.33;;
9496;SDS011;4786;51.270;4.456;2022-07-17T15:30:54;3.63;;;3.10;;
9496;SDS011;4786;51.270;4.456;2022-07-17T15:33:20;5.97;;;4.28;;
9496;SDS011;4786;51.270;4.456;2022-07-17T15:35:46;3.50;;;3.10;;
9496;SDS011;4786;51.270;4.456;2022-07-17T15:38:12;3.35;;;2.95;;
9496;SDS011;4786;51.270;4.456;2022-07-17T15:40:37;4.28;;;3.00;;
9496;SDS011;4786;51.270;4.456;2022-07-17T15:43:03;3.00;;;2.70;;